createdAt,value
2023-05-08T00:00:20.130Z,100.00
2023-05-08T00:02:48.590Z,100.00
2023-05-08T00:05:17.182Z,100.00
2023-05-08T00:07:47.239Z,100.00
2023-05-08T00:10:15.786Z,100.00
2023-05-08T00:12:44.224Z,100.00
2023-05-08T00:15:12.780Z,100.00
2023-05-08T00:17:41.090Z,100.00
2023-05-08T00:20:10.429Z,100.00
2023-05-08T00:22:38.939Z,100.00
2023-05-08T00:25:09.387Z,100.00
2023-05-08T00:27:37.713Z,100.00
2023-05-08T00:30:07.282Z,100.00
2023-05-08T00:32:35.572Z,100.00
2023-05-08T00:35:03.940Z,100.00
2023-05-08T00:37:32.200Z,100.00
2023-05-08T00:40:00.404Z,100.00
2023-05-08T00:42:30.110Z,100.00
2023-05-08T00:44:58.301Z,100.00
2023-05-08T00:47:26.521Z,100.00
2023-05-08T00:49:55.149Z,100.00
2023-05-08T00:52:24.053Z,98.79
2023-05-08T00:54:52.486Z,98.28
2023-05-08T00:57:21.300Z,100.00
2023-05-08T00:59:51.778Z,100.00
2023-05-08T01:02:21.145Z,100.00
2023-05-08T01:04:50.127Z,100.00
2023-05-08T01:07:19.234Z,100.00
2023-05-08T01:09:47.463Z,100.00
2023-05-08T01:12:22.328Z,100.00
2023-05-08T01:15:02.565Z,100.00
2023-05-08T01:17:43.218Z,100.00
2023-05-08T01:20:25.175Z,100.00
2023-05-08T01:23:24.810Z,100.00
2023-05-08T01:26:28.431Z,100.00
2023-05-08T01:29:17.617Z,100.00
2023-05-08T01:32:16.495Z,100.00
2023-05-08T01:34:56.379Z,100.00
2023-05-08T01:37:33.964Z,100.00
2023-05-08T01:40:10.836Z,100.00
2023-05-08T01:42:50.588Z,100.00
2023-05-08T01:45:23.722Z,100.00
2023-05-08T01:48:02.181Z,100.00
2023-05-08T01:50:37.947Z,100.00
2023-05-08T01:53:11.767Z,100.00
2023-05-08T01:55:42.008Z,100.00
2023-05-08T01:58:12.030Z,100.00
2023-05-08T02:00:42.031Z,100.00
2023-05-08T02:03:12.326Z,100.00
2023-05-08T02:05:44.206Z,100.00
2023-05-08T02:08:15.246Z,100.00
2023-05-08T02:10:44.623Z,100.00
2023-05-08T02:13:19.275Z,100.00
2023-05-08T02:15:49.205Z,100.00
2023-05-08T02:18:21.798Z,100.00
2023-05-08T02:20:53.461Z,100.00
2023-05-08T02:23:23.789Z,100.00
2023-05-08T02:25:53.367Z,100.00
2023-05-08T02:28:23.929Z,100.00
2023-05-08T02:30:53.990Z,100.00
2023-05-08T02:33:23.750Z,100.00
2023-05-08T02:35:55.123Z,100.00
2023-05-08T02:38:26.859Z,100.00
2023-05-08T02:40:58.717Z,100.00
2023-05-08T02:43:27.162Z,100.00
2023-05-08T02:46:04.208Z,100.00
2023-05-08T02:48:37.666Z,100.00
2023-05-08T02:51:19.770Z,100.00
2023-05-08T02:53:52.744Z,100.00
2023-05-08T02:56:32.280Z,100.00
2023-05-08T02:59:11.421Z,100.00
2023-05-08T03:01:46.000Z,100.00
2023-05-08T03:04:21.932Z,100.00
2023-05-08T03:06:53.604Z,100.00
2023-05-08T03:09:26.369Z,100.00
2023-05-08T03:12:03.956Z,100.00
2023-05-08T03:14:36.673Z,100.00
2023-05-08T03:17:08.885Z,100.00
2023-05-08T03:19:41.004Z,100.00
2023-05-08T03:22:12.518Z,100.00
2023-05-08T03:24:44.080Z,100.00
2023-05-08T03:27:13.525Z,100.00
2023-05-08T03:29:43.349Z,100.00
2023-05-08T03:32:13.259Z,100.00
2023-05-08T03:34:42.579Z,100.00
2023-05-08T03:37:12.374Z,100.00
2023-05-08T03:39:40.661Z,100.00
2023-05-08T03:42:08.975Z,100.00
2023-05-08T03:44:39.109Z,100.00
2023-05-08T03:47:08.087Z,100.00
2023-05-08T03:49:38.865Z,100.00
2023-05-08T03:52:07.670Z,100.00
2023-05-08T03:54:37.354Z,100.00
2023-05-08T03:57:05.970Z,100.00
2023-05-08T03:59:44.350Z,100.00
2023-05-08T04:02:21.220Z,100.00
2023-05-08T04:04:54.523Z,100.00
2023-05-08T04:07:29.046Z,100.00
2023-05-08T04:10:02.047Z,100.00
2023-05-08T04:12:39.754Z,100.00
2023-05-08T04:15:12.368Z,100.00
2023-05-08T04:17:44.866Z,100.00
2023-05-08T04:20:20.801Z,100.00
2023-05-08T04:22:51.376Z,100.00
2023-05-08T04:25:22.307Z,100.00
2023-05-08T04:27:52.538Z,100.00
2023-05-08T04:30:21.992Z,100.00
2023-05-08T04:32:51.377Z,100.00
2023-05-08T04:35:19.700Z,100.00
2023-05-08T04:37:48.977Z,100.00
2023-05-08T04:40:17.308Z,100.00
2023-05-08T04:42:47.845Z,100.00
2023-05-08T04:45:16.614Z,100.00
2023-05-08T04:47:44.984Z,100.00
2023-05-08T04:50:13.453Z,100.00
2023-05-08T04:52:41.687Z,100.00
2023-05-08T04:55:11.365Z,100.00
2023-05-08T04:57:39.911Z,100.00
2023-05-08T05:00:10.988Z,100.00
2023-05-08T05:02:39.486Z,100.00
2023-05-08T05:05:08.998Z,100.00
2023-05-08T05:07:37.286Z,100.00
2023-05-08T05:10:06.039Z,100.00
2023-05-08T05:12:36.247Z,100.00
2023-05-08T05:15:04.838Z,100.00
2023-05-08T05:17:35.463Z,100.00
2023-05-08T05:20:04.040Z,100.00
2023-05-08T05:22:34.289Z,100.00
2023-05-08T05:25:02.660Z,100.00
2023-05-08T05:27:31.234Z,100.00
2023-05-08T05:30:00.204Z,100.00
2023-05-08T05:32:28.485Z,100.00
2023-05-08T05:34:58.365Z,100.00
2023-05-08T05:37:26.595Z,100.00
2023-05-08T05:39:54.874Z,100.00
2023-05-08T05:42:23.417Z,100.00
2023-05-08T05:44:51.705Z,100.00
2023-05-08T05:47:20.048Z,100.00
2023-05-08T05:49:48.288Z,100.00
2023-05-08T05:52:17.899Z,94.60
2023-05-08T05:54:46.887Z,94.51
2023-05-08T05:57:15.130Z,92.09
2023-05-08T05:59:45.880Z,87.36
2023-05-08T06:02:18.963Z,85.35
2023-05-08T06:04:47.444Z,84.51
2023-05-08T06:07:17.213Z,81.15
2023-05-08T06:09:45.698Z,82.43
2023-05-08T06:12:13.944Z,82.54
2023-05-08T06:14:42.171Z,81.53
2023-05-08T06:17:10.676Z,82.74
2023-05-08T06:19:39.007Z,80.93
2023-05-08T06:22:07.453Z,80.03
2023-05-08T06:24:37.130Z,78.73
2023-05-08T06:27:05.617Z,78.33
2023-05-08T06:29:34.164Z,74.64
2023-05-08T06:32:02.420Z,72.81
2023-05-08T06:34:31.640Z,72.99
2023-05-08T06:36:59.924Z,71.67
2023-05-08T06:39:28.198Z,72.23
2023-05-08T06:41:58.082Z,71.57
2023-05-08T06:44:26.525Z,71.13
2023-05-08T06:46:55.464Z,69.85
2023-05-08T06:49:24.259Z,69.14
2023-05-08T06:51:52.595Z,67.39
2023-05-08T06:54:20.879Z,66.51
2023-05-08T06:56:49.277Z,66.04
2023-05-08T06:59:18.975Z,64.98
2023-05-08T07:01:47.318Z,65.42
2023-05-08T07:04:15.693Z,64.92
2023-05-08T07:06:43.926Z,63.04
2023-05-08T07:09:13.079Z,61.92
2023-05-08T07:11:41.489Z,61.58
2023-05-08T07:14:09.802Z,58.75
2023-05-08T07:16:39.548Z,57.66
2023-05-08T07:19:07.917Z,58.37
2023-05-08T07:21:36.148Z,57.47
2023-05-08T07:24:05.014Z,54.62
2023-05-08T07:26:33.269Z,53.49
2023-05-08T07:29:01.514Z,54.28
2023-05-08T07:31:31.084Z,53.34
2023-05-08T07:34:01.097Z,53.41
2023-05-08T07:36:29.359Z,52.00
2023-05-08T07:38:57.774Z,52.62
2023-05-08T07:41:26.750Z,50.66
2023-05-08T07:43:55.018Z,48.99
2023-05-08T07:46:23.516Z,48.98
2023-05-08T07:48:52.272Z,49.51
2023-05-08T07:51:21.979Z,49.30
2023-05-08T07:53:51.271Z,48.77
2023-05-08T07:56:19.696Z,46.89
2023-05-08T07:58:48.012Z,46.72
2023-05-08T08:01:18.278Z,47.52
2023-05-08T08:03:47.126Z,46.38
2023-05-08T08:06:15.819Z,45.20
2023-05-08T08:08:45.658Z,45.09
2023-05-08T08:11:13.873Z,45.54
2023-05-08T08:13:42.111Z,45.30
2023-05-08T08:16:10.428Z,45.86
2023-05-08T08:18:38.735Z,45.10
2023-05-08T08:21:07.883Z,44.38
2023-05-08T08:23:36.254Z,43.62
2023-05-08T08:26:06.108Z,43.67
2023-05-08T08:28:34.527Z,42.23
2023-05-08T08:31:02.966Z,41.13
2023-05-08T08:33:31.371Z,41.56
2023-05-08T08:35:59.695Z,41.44
2023-05-08T08:38:28.103Z,42.66
2023-05-08T08:40:56.385Z,41.49
2023-05-08T08:43:26.774Z,41.45
2023-05-08T08:45:55.173Z,40.29
2023-05-08T08:48:29.498Z,41.13
2023-05-08T08:51:04.022Z,42.20
2023-05-08T08:53:36.991Z,42.04
2023-05-08T08:56:09.741Z,44.65
2023-05-08T08:58:43.588Z,45.84
2023-05-08T09:01:17.710Z,46.99
2023-05-08T09:03:47.682Z,44.88
2023-05-08T09:06:18.550Z,45.07
2023-05-08T09:08:47.537Z,44.64
2023-05-08T09:11:15.920Z,44.32
2023-05-08T09:13:45.942Z,45.21
2023-05-08T09:16:14.368Z,46.27
2023-05-08T09:18:42.752Z,45.29
2023-05-08T09:21:11.119Z,47.28
2023-05-08T09:23:55.603Z,47.92
2023-05-08T09:26:32.622Z,46.35
2023-05-08T09:29:22.236Z,46.18
2023-05-08T09:31:51.922Z,45.97
2023-05-08T09:34:28.630Z,45.80
2023-05-08T09:36:57.492Z,43.78
2023-05-08T09:39:26.842Z,43.34
2023-05-08T09:42:01.922Z,43.03
2023-05-08T09:44:45.658Z,42.46
2023-05-08T09:47:15.007Z,42.73
2023-05-08T09:49:58.017Z,44.38
2023-05-08T09:52:26.914Z,45.11
2023-05-08T09:55:00.058Z,46.20
2023-05-08T09:57:29.007Z,46.22
2023-05-08T10:00:06.237Z,45.07
2023-05-08T10:02:34.750Z,46.34
2023-05-08T10:05:03.162Z,46.54
2023-05-08T10:07:35.936Z,46.80
2023-05-08T10:10:06.112Z,46.84
2023-05-08T10:12:35.281Z,47.88
2023-05-08T10:15:05.631Z,47.72
2023-05-08T10:17:44.189Z,46.08
2023-05-08T10:20:15.532Z,46.33
2023-05-08T10:22:45.232Z,47.21
2023-05-08T10:25:18.308Z,47.41
2023-05-08T10:27:53.003Z,45.83
2023-05-08T10:30:27.095Z,46.95
2023-05-08T10:32:58.987Z,46.91
2023-05-08T10:35:28.675Z,49.58
2023-05-08T10:37:57.599Z,48.83
2023-05-08T10:40:25.932Z,49.18
2023-05-08T10:42:54.178Z,47.91
2023-05-08T10:45:25.121Z,46.67
2023-05-08T10:48:01.001Z,43.41
2023-05-08T10:50:47.689Z,43.67
2023-05-08T10:53:22.130Z,43.53
2023-05-08T10:55:53.226Z,41.48
2023-05-08T10:58:32.240Z,40.18
2023-05-08T11:01:18.442Z,40.17
2023-05-08T11:03:55.558Z,38.16
2023-05-08T11:06:44.700Z,38.13
2023-05-08T11:09:21.165Z,36.84
2023-05-08T11:11:58.115Z,35.40
2023-05-08T11:14:28.381Z,35.52
2023-05-08T11:17:11.357Z,34.70
2023-05-08T11:19:39.903Z,36.39
2023-05-08T11:22:16.464Z,36.20
2023-05-08T11:25:00.902Z,36.36
2023-05-08T11:27:41.309Z,38.23
2023-05-08T11:30:36.347Z,39.33
2023-05-08T11:33:16.408Z,38.52
2023-05-08T11:35:53.825Z,36.84
2023-05-08T11:38:27.272Z,36.26
2023-05-08T11:41:02.990Z,36.97
2023-05-08T11:44:09.476Z,37.86
2023-05-08T11:46:42.197Z,38.81
2023-05-08T11:49:16.995Z,39.77
2023-05-08T11:51:47.205Z,41.89
2023-05-08T11:54:18.086Z,43.53
2023-05-08T11:56:48.414Z,44.46
2023-05-08T11:59:17.681Z,48.30
2023-05-08T12:01:50.836Z,53.85
2023-05-08T12:04:26.463Z,57.53
2023-05-08T12:07:00.093Z,60.43
2023-05-08T12:09:29.050Z,62.55
2023-05-08T12:12:00.318Z,67.05
2023-05-08T12:14:28.749Z,67.09
2023-05-08T12:16:57.111Z,69.27
2023-05-08T12:19:26.800Z,73.95
2023-05-08T12:21:58.645Z,73.20
2023-05-08T12:24:27.042Z,70.93
2023-05-08T12:26:56.775Z,67.87
2023-05-08T12:29:28.546Z,63.18
2023-05-08T12:31:57.430Z,60.73
2023-05-08T12:34:27.746Z,64.88
2023-05-08T12:37:05.571Z,73.21
2023-05-08T12:39:38.027Z,73.85
2023-05-08T12:42:06.497Z,78.83
2023-05-08T12:44:34.777Z,82.54
2023-05-08T12:47:07.250Z,82.82
2023-05-08T12:49:38.716Z,81.19
2023-05-08T12:52:10.459Z,86.33
2023-05-08T12:54:41.102Z,85.97
2023-05-08T12:57:13.412Z,83.01
2023-05-08T12:59:42.556Z,78.97
2023-05-08T13:02:15.712Z,86.99
2023-05-08T13:04:46.102Z,97.02
2023-05-08T13:07:14.574Z,98.81
2023-05-08T13:09:57.877Z,94.84
2023-05-08T13:12:26.266Z,96.19
2023-05-08T13:14:54.684Z,92.03
2023-05-08T13:17:23.042Z,82.84
2023-05-08T13:19:52.867Z,78.38
2023-05-08T13:22:23.328Z,78.04
2023-05-08T13:24:51.620Z,75.18
2023-05-08T13:27:20.073Z,77.02
2023-05-08T13:29:48.489Z,73.21
2023-05-08T13:32:16.773Z,71.55
2023-05-08T13:34:50.415Z,76.30
2023-05-08T13:37:21.467Z,81.15
2023-05-08T13:39:49.766Z,86.30
2023-05-08T13:42:18.004Z,70.35
2023-05-08T13:44:46.290Z,73.55
2023-05-08T13:47:14.722Z,71.10
2023-05-08T13:49:44.254Z,73.72
2023-05-08T13:52:12.561Z,70.76
2023-05-08T13:54:42.250Z,71.10
2023-05-08T13:57:10.917Z,71.13
2023-05-08T13:59:39.331Z,71.00
2023-05-08T14:02:08.119Z,70.08
2023-05-08T14:04:36.423Z,69.87
2023-05-08T14:07:04.701Z,70.77
2023-05-08T14:09:32.960Z,70.60
2023-05-08T14:12:02.788Z,65.64
2023-05-08T14:14:32.411Z,68.78
2023-05-08T14:17:20.456Z,70.25
2023-05-08T14:19:48.743Z,72.92
2023-05-08T14:22:16.997Z,73.86
2023-05-08T14:24:45.590Z,74.23
2023-05-08T14:27:15.341Z,71.62
2023-05-08T14:29:43.609Z,70.09
2023-05-08T14:32:12.016Z,69.07
2023-05-08T14:34:40.363Z,66.68
2023-05-08T14:37:08.577Z,67.73
2023-05-08T14:39:36.888Z,67.20
2023-05-08T14:42:22.118Z,66.57
2023-05-08T14:44:52.498Z,68.08
2023-05-08T14:47:21.141Z,70.27
2023-05-08T14:49:49.506Z,75.23
2023-05-08T14:52:17.935Z,83.42
2023-05-08T14:54:48.029Z,86.37
2023-05-08T14:57:16.399Z,97.28
2023-05-08T14:59:54.096Z,100.00
2023-05-08T15:02:25.021Z,100.00
2023-05-08T15:04:54.292Z,96.43
2023-05-08T15:07:22.525Z,96.24
2023-05-08T15:09:50.979Z,98.94
2023-05-08T15:12:19.337Z,92.08
2023-05-08T15:14:47.627Z,94.19
2023-05-08T15:17:16.172Z,88.40
2023-05-08T15:19:46.071Z,85.18
2023-05-08T15:22:14.377Z,83.97
2023-05-08T15:24:42.776Z,84.25
2023-05-08T15:27:11.921Z,85.56
2023-05-08T15:29:40.927Z,85.59
2023-05-08T15:32:09.390Z,89.26
2023-05-08T15:34:39.940Z,87.66
2023-05-08T15:37:10.381Z,85.02
2023-05-08T15:39:38.680Z,80.45
2023-05-08T15:42:07.455Z,81.84
2023-05-08T15:47:07.339Z,83.52
2023-05-08T15:49:35.624Z,82.53
2023-05-08T15:52:04.040Z,83.42
2023-05-08T15:54:33.693Z,82.30
2023-05-08T15:57:02.021Z,82.84
2023-05-08T15:59:30.346Z,81.71
2023-05-08T16:01:58.690Z,81.73
2023-05-08T16:04:27.016Z,80.84
2023-05-08T16:06:56.058Z,78.44
2023-05-08T16:09:24.467Z,79.66
2023-05-08T16:11:54.161Z,79.00
2023-05-08T16:14:22.416Z,79.88
2023-05-08T16:16:50.763Z,81.56
2023-05-08T16:19:19.104Z,82.16
2023-05-08T16:21:47.909Z,84.25
2023-05-08T16:24:16.456Z,83.94
2023-05-08T16:26:44.663Z,84.20
2023-05-08T16:29:14.358Z,85.67
2023-05-08T16:31:42.695Z,87.04
2023-05-08T16:34:10.957Z,84.87
2023-05-08T16:36:39.400Z,83.82
2023-05-08T16:39:08.454Z,83.31
2023-05-08T16:41:36.832Z,82.99
2023-05-08T16:44:05.251Z,84.41
2023-05-08T16:46:34.999Z,86.45
2023-05-08T16:49:03.320Z,98.36
2023-05-08T16:51:32.499Z,98.24
2023-05-08T16:54:00.814Z,99.86
2023-05-08T16:56:29.088Z,100.00
2023-05-08T16:58:57.335Z,100.00
2023-05-08T17:01:25.681Z,97.74
2023-05-08T17:03:55.486Z,94.89
2023-05-08T17:06:23.810Z,93.27
2023-05-08T17:08:52.114Z,93.91
2023-05-08T17:11:20.377Z,96.41
2023-05-08T17:13:48.764Z,100.00
2023-05-08T17:16:19.668Z,100.00
2023-05-08T17:18:48.760Z,96.75
2023-05-08T17:21:18.548Z,94.18
2023-05-08T17:23:46.859Z,96.42
2023-05-08T17:26:15.291Z,99.57
2023-05-08T17:28:44.600Z,100.00
2023-05-08T17:31:13.234Z,100.00
2023-05-08T17:33:41.640Z,100.00
2023-05-08T17:36:10.730Z,100.00
2023-05-08T17:38:45.907Z,100.00
2023-05-08T17:41:14.395Z,100.00
2023-05-08T17:43:42.727Z,100.00
2023-05-08T17:46:11.099Z,100.00
2023-05-08T17:48:39.499Z,100.00
2023-05-08T17:51:07.822Z,100.00
2023-05-08T17:53:36.218Z,100.00
2023-05-08T17:56:06.357Z,100.00
2023-05-08T17:58:34.620Z,100.00
2023-05-08T18:01:02.976Z,100.00
2023-05-08T18:03:32.033Z,100.00
2023-05-08T18:06:00.292Z,100.00
2023-05-08T18:08:28.534Z,100.00
2023-05-08T18:10:56.830Z,100.00
2023-05-08T18:13:26.835Z,100.00
2023-05-08T18:15:55.162Z,100.00
2023-05-08T18:18:23.447Z,100.00
2023-05-08T18:20:51.736Z,100.00
2023-05-08T18:23:22.239Z,100.00
2023-05-08T18:25:50.706Z,100.00
2023-05-08T18:28:19.078Z,100.00
2023-05-08T18:30:48.733Z,100.00
2023-05-08T18:33:17.254Z,100.00
2023-05-08T18:35:45.625Z,100.00
2023-05-08T18:38:13.917Z,100.00
2023-05-08T18:40:42.268Z,100.00
2023-05-08T18:43:10.557Z,100.00
2023-05-08T18:45:40.645Z,100.00
2023-05-08T18:48:11.537Z,100.00
2023-05-08T18:50:40.080Z,100.00
2023-05-08T18:53:09.978Z,100.00
2023-05-08T18:55:38.329Z,100.00
2023-05-08T18:58:06.626Z,100.00
2023-05-08T19:00:34.877Z,100.00
2023-05-08T19:03:03.201Z,100.00
2023-05-08T19:05:33.016Z,100.00
2023-05-08T19:08:01.358Z,100.00
2023-05-08T19:10:29.713Z,100.00
2023-05-08T19:12:58.640Z,100.00
2023-05-08T19:15:36.763Z,100.00
2023-05-08T19:18:05.328Z,100.00
2023-05-08T19:20:35.076Z,100.00
2023-05-08T19:23:03.750Z,100.00
2023-05-08T19:25:32.048Z,100.00
2023-05-08T19:28:00.457Z,100.00
2023-05-08T19:30:28.889Z,100.00
2023-05-08T19:32:57.210Z,100.00
2023-05-08T19:35:25.589Z,100.00
2023-05-08T19:37:55.370Z,100.00
2023-05-08T19:40:23.735Z,100.00
2023-05-08T19:42:51.970Z,100.00
2023-05-08T19:45:20.421Z,100.00
2023-05-08T19:47:49.442Z,100.00
2023-05-08T19:50:19.035Z,100.00
2023-05-08T19:52:48.842Z,100.00
2023-05-08T19:55:19.346Z,100.00
2023-05-08T19:57:47.587Z,100.00
2023-05-08T20:00:16.407Z,100.00
2023-05-08T20:02:44.728Z,100.00
2023-05-08T20:05:31.331Z,100.00
2023-05-08T20:07:59.684Z,100.00
2023-05-08T20:10:29.454Z,100.00
2023-05-08T20:12:57.749Z,100.00
2023-05-08T20:15:26.239Z,100.00
2023-05-08T20:17:55.586Z,100.00
2023-05-08T20:20:24.418Z,100.00
2023-05-08T20:22:52.621Z,100.00
2023-05-08T20:25:21.080Z,100.00
2023-05-08T20:27:50.892Z,100.00
2023-05-08T20:30:19.825Z,100.00
2023-05-08T20:32:49.281Z,100.00
2023-05-08T20:35:17.599Z,100.00
2023-05-08T20:37:46.633Z,100.00
2023-05-08T20:40:15.647Z,100.00
2023-05-08T20:42:44.116Z,100.00
2023-05-08T20:45:14.033Z,100.00
2023-05-08T20:47:42.382Z,100.00
2023-05-08T20:50:10.991Z,100.00
2023-05-08T20:52:41.294Z,100.00
2023-05-08T20:55:11.579Z,100.00
2023-05-08T20:57:39.975Z,100.00
2023-05-08T21:00:09.587Z,100.00
2023-05-08T21:02:41.363Z,100.00
2023-05-08T21:05:10.228Z,100.00
2023-05-08T21:07:39.166Z,100.00
2023-05-08T21:10:08.318Z,100.00
2023-05-08T21:12:36.722Z,100.00
2023-05-08T21:15:05.394Z,100.00
2023-05-08T21:17:33.744Z,100.00
2023-05-08T21:20:03.496Z,100.00
2023-05-08T21:22:31.836Z,100.00
2023-05-08T21:25:00.203Z,100.00
2023-05-08T21:27:28.547Z,100.00
2023-05-08T21:29:56.896Z,100.00
2023-05-08T21:32:25.180Z,100.00
2023-05-08T21:34:53.498Z,100.00
2023-05-08T21:37:23.707Z,100.00
2023-05-08T21:39:51.974Z,100.00
2023-05-08T21:42:20.349Z,100.00
2023-05-08T21:44:48.650Z,100.00
2023-05-08T21:47:16.931Z,100.00
2023-05-08T21:49:45.236Z,100.00
2023-05-08T21:52:14.493Z,100.00
2023-05-08T21:54:44.199Z,100.00
2023-05-08T21:57:12.542Z,100.00
2023-05-08T21:59:40.709Z,100.00
2023-05-08T22:02:09.002Z,100.00
2023-05-08T22:04:37.397Z,100.00
2023-05-08T22:07:05.639Z,100.00
2023-05-08T22:09:33.898Z,100.00
2023-05-08T22:12:03.607Z,100.00
2023-05-08T22:14:31.899Z,100.00
2023-05-08T22:17:00.286Z,100.00
2023-05-08T22:19:28.643Z,100.00
2023-05-08T22:21:56.871Z,100.00
2023-05-08T22:24:25.668Z,100.00
2023-05-08T22:26:54.014Z,100.00
2023-05-08T22:29:23.636Z,100.00
2023-05-08T22:31:51.900Z,100.00
2023-05-08T22:34:20.236Z,100.00
2023-05-08T22:36:48.466Z,100.00
2023-05-08T22:39:16.695Z,100.00
2023-05-08T22:41:45.123Z,100.00
2023-05-08T22:44:13.381Z,100.00
2023-05-08T22:46:43.343Z,100.00
2023-05-08T22:49:11.755Z,100.00
2023-05-08T22:51:40.319Z,100.00
2023-05-08T22:54:08.652Z,100.00
2023-05-08T22:56:38.306Z,100.00
2023-05-08T22:59:07.291Z,100.00
2023-05-08T23:01:35.736Z,100.00
2023-05-08T23:04:05.928Z,100.00
2023-05-08T23:06:34.379Z,100.00
2023-05-08T23:09:03.312Z,100.00
2023-05-08T23:11:31.799Z,100.00
2023-05-08T23:14:00.071Z,100.00
2023-05-08T23:16:28.363Z,100.00
2023-05-08T23:18:56.624Z,100.00
2023-05-08T23:21:26.228Z,100.00
2023-05-08T23:23:54.684Z,100.00
2023-05-08T23:26:23.111Z,100.00
2023-05-08T23:28:51.332Z,100.00
2023-05-08T23:31:19.834Z,100.00
2023-05-08T23:33:48.112Z,100.00
2023-05-08T23:36:16.868Z,100.00
2023-05-08T23:38:46.542Z,100.00
2023-05-08T23:41:15.080Z,100.00
2023-05-08T23:43:44.448Z,100.00
2023-05-08T23:46:12.780Z,100.00
2023-05-08T23:48:40.996Z,100.00
2023-05-08T23:51:09.315Z,100.00
2023-05-08T23:53:37.627Z,100.00
2023-05-08T23:56:07.913Z,100.00
2023-05-08T23:58:36.502Z,100.00
